DIRECCIÓN GENERAL DE AERONÁUTICA CIVIL
DIRECCIÓN METEOROLÓGICA DE CHILE
INFORMACIÓN METAR Y TAF

FIR SANTIAGO

Estación: SCSE
METAR SCSE 052200Z 29007KT 9999 FEW020 18/14 Q1011=

TAF SCSE 052202Z 0600/0700 29009KT 9999 BKN017 TX19/0619Z TN14/0610Z BECMG 0601/0603 VRB02KT BECMG 0603/0605 BKN012 TEMPO 0608/0612 11004KT 5000 BR BKN006 BECMG 0614/0616 29008KT SCT018 BECMG 0618/0620 CAVOK=

Estación: SCER
NIL=

NIL=

Estación: SCRD
METAR SCRD 052200Z 22009KT CAVOK 21/09 Q1012=

TAF SCRD 051603Z 0518/0606 32012KT CAVOK TX23/0519Z TN12/0606Z BECMG 0520/0522 19011KT BECMG 0600/0602 VRB02KT=

Estación: SCVM
METAR SCVM 052200Z 34009KT CAVOK 21/11 Q1012=

TAF SCVM 052202Z 0600/0700 32010KT CAVOK TX20/0619Z TN12/0610Z BECMG 0601/0603 15005KT BECMG 0605/0607 00000KT BKN012 TEMPO 0608/0613 33004KT 4000 BR BKN005 BECMG 0614/0616 32010KT BKN018 BECMG 0616/0618 SCT020 BECMG 0618/0620 CAVOK=

Estación: SCTB
METAR SCTB 052200Z 24005KT CAVOK 30/12 Q1012=

TAF SCTB 051604Z 0518/0606 22005KT CAVOK TX30/0519Z TN14/0606Z TEMPO 0518/0522 26007KT 8000 BECMG 0600/0602 VRB02KT=

Estación: SCEL
METAR SCEL 052200Z 22013KT CAVOK 29/08 Q1010 NOSIG=

TAF SCEL 052203Z 0600/0700 20010KT CAVOK TX30/0619Z TN13/0610Z BECMG 0601/0603 16005KT TEMPO 0608/0614 VRB02KT 8000 BECMG 0615/0617 20013KT=

Estación: SCSN
METAR SCSN 052200Z 26012KT CAVOK 17/13 Q1012=

TAF SCSN 051602Z 0518/0606 27010KT CAVOK TX21/0519Z TN12/0606Z BECMG 0600/0602 09004KT=

Estación: SCRG
METAR SCRG 241300Z 36004KT 2000 DZ OVC010 13/12 Q1014=

TAF SCRG 251040Z 2512/2524 36005KT 9999 OVC015 TX20/2519Z TN13/2512Z TEMPO 2512/2515 5000 -DZ BR OVC010 BECMG 2518/2520 19008KT SCT040=

Estación: SCIC
METAR SCIC 052200Z 20009KT CAVOK 29/07 Q1010=

TAF SCIC 051604Z 0518/0606 20010KT CAVOK TX30/0519Z TN14/0606Z TEMPO 0518/0522 26010KT BECMG 0600/0602 25004KT=

Estación: SCCH
METAR SCCH 052200Z 20008KT CAVOK 30/05 Q1011=

TAF SCCH 051605Z 0518/0606 20010KT CAVOK TX30/0519Z TN13/0606Z TEMPO 0518/0522 27010KT BECMG 0600/0602 VRB02KT=

Estación: SCIE
METAR SCIE 052200Z 24014KT CAVOK 20/13 Q1013=

TAF SCIE 052203Z 0600/0700 23010KT CAVOK TX22/0618Z TN09/0610Z BECMG 0601/0603 21006KT TEMPO 0607/0614 15004KT BECMG 0615/0617 23010KT=

Estación: SCGE
METAR SCGE 052100Z 18010KT CAVOK 30/05 Q1012=

TAF SCGE 051605Z 0518/0606 18010KT CAVOK TX31/0519Z TN12/0606Z BECMG 0600/0602 VRB02KT=


Volver